Das ist die Wetter- und Hausseite der Bittkau's aus Magdeburg Ottersleben


Hier werden aktuelle Daten aus der privaten Wetterstation und

andere lokale Wettervorhersagen bereitgestellt




Thunder radar more information blitzortung!


Rain radar more information rain snow radar



Es ist keine erhöhte Aufmerksamkeit aufgrund des Wetters notwendig.    Es gibt keine Warnungen.

METAR-Meldungen aus der Umgebung

   
EDDP - Leipzig
Aktualisierung: 10.08.2020 10:50
Klar  
Klar  
   Wind: OSO 16.7 km/h
Wind: OSO 16.7 km/h
Temperatur: 26°C
Taupunkt: 17°C
Luftfeuchte: 58%
Luftdruck: 1018 hPa
Sichtbarkeit: More than 10 km
Bewölkung: Klar
EDDP 100850Z 12009KT 080V140 CAVOK 26/17 Q1018 TEMPO SHRA
EDDC - Dresden
Aktualisierung: 10.08.2020 10:50
Light Thunderstorm, Regen, Stark bewölkt  
Light Thunderstorm, Regen, Stark bewölkt  
   Wind: NNO 9.3 km/h
Wind: NNO 9.3 km/h
Temperatur: 19°C
Taupunkt: 18°C
Luftfeuchte: 94%
Luftdruck: 1018 hPa
Bewölkt: Stark bewölkt
Sichtbarkeit: More than 10 km
Bewölkung: leicht bewölkt 365.8 m,
Stark bewölkt 1889.8 m
EDDC 100850Z 03005KT 9999 -TSRA FEW012 BKN062CB 19/18 Q1018 RETSRA BECMG NSW
EDDE - Erfurt
Aktualisierung: 10.08.2020 10:50
leichter Regen, Regen, Stark bewölkt  
leichter Regen, Regen, Stark bewölkt  
   Wind: NNO 11.1 km/h
Wind: NNO 11.1 km/h
Temperatur: 20°C
Taupunkt: 18°C
Luftfeuchte: 88%
Luftdruck: 1018 hPa
Bewölkt: Stark bewölkt
Sichtbarkeit: More than 10 km
Bewölkung: Stark bewölkt 1828.8 m
EDDE 100850Z 02006KT 9999 -SHRA BKN060CB 20/18 Q1018 TEMPO SHRA
EDVE - Braunschweig
Aktualisierung: 10.08.2020 10:50
leicht bewölkt  
leicht bewölkt  
   Wind: Osten 9.3 km/h
Wind: Osten 9.3 km/h
Temperatur: 22°C
Taupunkt: 20°C
Luftfeuchte: 88%
Luftdruck: 1017 hPa
Bewölkt: leicht bewölkt
Sichtbarkeit: More than 10 km
Bewölkung: leicht bewölkt 1402.1 m
EDVE 100850Z 08005KT 030V120 9999 FEW046 22/20 Q1017
EDDV - Hannover
Aktualisierung: 10.08.2020 10:50
Klar  
Klar  
   Wind: variiert 3.7 km/h
Wind: variiert 3.7 km/h
Temperatur: 26°C
Taupunkt: 19°C
Luftfeuchte: 65%
Luftdruck: 1017 hPa
Sichtbarkeit: More than 10 km
Bewölkung: Klar
EDDV 100850Z VRB02KT CAVOK 26/19 Q1017 NOSIG
EDDT - Berlin
Aktualisierung: 10.08.2020 10:50
Klar  
Klar  
   Wind: variiert 7.4 km/h
Wind: variiert 7.4 km/h
Temperatur: 29°C
Hitzeindex: 29°C
Taupunkt: 16°C
Luftfeuchte: 45%
Luftdruck: 1018 hPa
Sichtbarkeit: More than 10 km
Bewölkung: Klar
EDDT 100850Z VRB04KT CAVOK 29/16 Q1018 NOSIG
EDDE - Schwerin
Aktualisierung: 10.08.2020 10:50
leichter Regen, Regen, Stark bewölkt  
leichter Regen, Regen, Stark bewölkt  
   Wind: NNO 11.1 km/h
Wind: NNO 11.1 km/h
Temperatur: 20°C
Taupunkt: 18°C
Luftfeuchte: 88%
Luftdruck: 1018 hPa
Bewölkt: Stark bewölkt
Sichtbarkeit: More than 10 km
Bewölkung: Stark bewölkt 1828.8 m
EDDE 100850Z 02006KT 9999 -SHRA BKN060CB 20/18 Q1018 TEMPO SHRA
EDHI - Hamburg
Aktualisierung: 10.08.2020 10:50
Klar  
Klar  
   Wind: ONO 11.1 km/h
Wind: ONO 11.1 km/h
Temperatur: 28°C
Hitzeindex: 29°C
Taupunkt: 18°C
Luftfeuchte: 55%
Luftdruck: 1017 hPa
Sichtbarkeit: More than 10 km
Bewölkung: Klar
EDHI 100850Z 07006KT 030V100 CAVOK 28/18 Q1017
EDDK - Köln-Bonn
Aktualisierung: 10.08.2020 10:50
Klar  
Klar  
   Wind: SO 13 km/h
Wind: SO 13 km/h
Temperatur: 28°C
Hitzeindex: 28°C
Taupunkt: 17°C
Luftfeuchte: 51%
Luftdruck: 1015 hPa
Sichtbarkeit: More than 10 km
Bewölkung: Klar
EDDK 100850Z 13007KT 090V170 CAVOK 28/17 Q1015 NOSIG
EDHL - Lübeck-Blankensee
Aktualisierung: 10.08.2020 10:50
Klar  
Klar  
   Wind: ONO 9.3 km/h
Wind: ONO 9.3 km/h
Temperatur: 27°C
Hitzeindex: 28°C
Taupunkt: 18°C
Luftfeuchte: 58%
Luftdruck: 1018 hPa
Sichtbarkeit: More than 10 km
Bewölkung: Klar
EDHL 100850Z 07005KT CAVOK 27/18 Q1018
  

Script entwickelt von  Saratoga-weather.org Angepasst für das Template von  Weerstation Leuven

Sie finden die Wetterinfo auch auf:

Wetternetzwerk Deutschland

European Weather Network

Weather Underground

Regionalwetter-SA

wetter.com

wxforum.de

Genutzte Hardware, Software und WEB Anbieter:

Wetterstation
Ventus W928-Ultimate

Wetterprogramm
Meteohub

WetterComputer
RaspberryPI

Anbieter
WEB Provider One.com

Ventus W928-Ultimate

Meteohub

RaspberryPI

WEB Provider One.com